메인 페이지
METAR-TAF:

METAR-TAF

공항 :

러벅, 텍사스, 미국

위도: 33-40-03N, 경도: 101-49-17W, 고도: 1000m

현재 날씨관측

예보는 22분 전, 18:53시(UTC)에 발표되었습니다.
34kt, 순간 최대 풍속 47kt
온도 6°C
습도 49%
기압 1015 hPa
시정: 16.1km
고도 5500ft 상공 흐림

METAR: KLBB 131853Z 36034G47KT 10SM OVC055 06/M04 A2996 RMK AO2 PK WND 36047/1849 RAE13 SLP137 P0000 T00561044

시각: 13:15 (19:15 UTC)

예보

예보는 1 시간 55분 전, 17:20시(UTC)에 발표되었습니다.
예보 대상 시간: 13일 18시부터 14일 18시까지 (UTC)
35kt, 순간 최대 풍속 45kt
시정: 10km
고도 4000ft 상공 구름 조금
고도 10000ft 상공 구름 많음
14일 0000시부터 (UTC)
25kt, 순간 최대 풍속 33kt
시정: 10km
맑음

TAF: KLBB 131720Z 1318/1418 01035G45KT P6SM FEW040 BKN100 FM140000 36025G33KT P6SM SKC

4,000개 이상의 공항 관측 자료 및 예보 (METAR 및 TAF 보고).

지도상에서 검색 가능한 기상관측소가 노란 점과 빨간 점으로 표시되어 있습니다.

기상관측소 명을 보려면 표시 위로 마우스를 이동하세요.

날씨 관측과 예보를 보려면 클릭하세요.

지도 변경 : 확대하려면 엑스 표시가 있는 녹색 버튼, 축소하려면 빼기 표시가 있는 녹색 버튼, 다음 페이지의 지도를 보려면 녹색 화살표를 클릭하세요.


METAR-TAF: